Time;durP1;ratioP1;P1;durP2;ratioP2;P2;SDS_P1;SDS_P2;PMS_P1;PMS_P2;Temp;Humidity;BMP_temperature;BMP_pressure;BME280_temperature;BME280_humidity;BME280_pressure;Samples;Min_cycle;Max_cycle;Signal;HPM_P1;HPM_P2
2021/08/08 00:02:13;;;;;;;3.50;1.33;;;22.50;64.70;;;;;;5111357;28;20177;-67
2021/08/08 00:04:38;;;;;;;1.67;1.30;;;22.50;64.70;;;;;;5111653;28;20181;-67
2021/08/08 00:07:04;;;;;;;1.80;1.10;;;22.50;64.70;;;;;;5111751;28;20208;-67
2021/08/08 00:09:29;;;;;;;2.00;1.30;;;22.50;64.70;;;;;;5110749;28;20221;-68
2021/08/08 00:11:55;;;;;;;1.15;1.10;;;22.50;64.70;;;;;;5112175;28;20169;-68
2021/08/08 00:14:21;;;;;;;2.88;0.90;;;22.50;64.80;;;;;;5111786;28;20169;-67
2021/08/08 00:16:47;;;;;;;1.48;1.17;;;22.50;64.80;;;;;;5111106;28;20173;-67
2021/08/08 00:19:12;;;;;;;1.98;1.27;;;22.50;64.70;;;;;;5112008;28;20642;-66
2021/08/08 00:21:38;;;;;;;1.20;1.10;;;22.50;64.80;;;;;;5111367;28;20264;-66
2021/08/08 00:24:04;;;;;;;1.95;1.30;;;22.50;64.80;;;;;;5110877;28;20172;-66
2021/08/08 00:26:29;;;;;;;1.63;1.27;;;22.50;64.80;;;;;;5114375;28;20208;-67
2021/08/08 00:28:55;;;;;;;2.55;1.30;;;22.50;64.80;;;;;;5115813;28;20169;-66
2021/08/08 00:31:24;;;;;;;1.55;1.23;;;22.50;64.80;;;;;;5114679;28;20607;-67
2021/08/08 00:33:52;;;;;;;1.38;1.17;;;22.50;64.80;;;;;;5115668;28;20175;-67
2021/08/08 00:36:18;;;;;;;1.13;1.02;;;22.50;64.80;;;;;;5115160;28;20175;-66
2021/08/08 00:38:44;;;;;;;1.85;1.13;;;22.50;64.80;;;;;;5114798;28;20253;-66
2021/08/08 00:41:09;;;;;;;1.20;1.10;;;22.50;64.80;;;;;;5115685;28;20172;-66
2021/08/08 00:43:35;;;;;;;1.17;1.00;;;22.40;64.80;;;;;;5115070;28;20557;-66
2021/08/08 00:46:00;;;;;;;1.92;1.38;;;22.40;64.80;;;;;;5114670;28;20560;-66
2021/08/08 00:48:26;;;;;;;2.60;1.33;;;22.40;64.80;;;;;;5115086;28;20173;-66
2021/08/08 00:50:51;;;;;;;3.17;1.30;;;22.40;64.80;;;;;;5115303;28;20471;-66
2021/08/08 00:53:17;;;;;;;2.17;1.38;;;22.40;64.80;;;;;;5114122;28;20218;-66
2021/08/08 00:55:43;;;;;;;1.40;1.20;;;22.40;64.80;;;;;;5115068;28;20170;-66
2021/08/08 00:58:08;;;;;;;2.70;1.25;;;22.40;64.80;;;;;;5114603;28;20188;-67
2021/08/08 01:00:34;;;;;;;1.80;1.20;;;22.40;64.80;;;;;;5114818;28;20600;-68
2021/08/08 01:03:02;;;;;;;1.40;1.15;;;22.40;64.80;;;;;;5115132;28;20627;-67
2021/08/08 01:05:30;;;;;;;2.17;1.40;;;22.40;64.80;;;;;;5095708;28;20259;-67
2021/08/08 01:07:59;;;;;;;1.27;1.17;;;22.40;64.80;;;;;;5096751;28;20219;-67
2021/08/08 01:10:25;;;;;;;1.40;1.30;;;22.40;64.80;;;;;;5096444;28;20173;-66
2021/08/08 01:12:51;;;;;;;1.33;1.23;;;22.40;64.80;;;;;;5096092;28;20653;-67
2021/08/08 01:15:17;;;;;;;2.00;1.40;;;22.40;64.80;;;;;;5096203;28;20656;-66
2021/08/08 01:17:43;;;;;;;2.63;1.38;;;22.40;64.80;;;;;;5096490;28;20181;-66
2021/08/08 01:20:10;;;;;;;2.35;1.73;;;22.40;64.80;;;;;;5095685;28;20284;-65
2021/08/08 01:22:37;;;;;;;1.80;1.50;;;22.40;64.80;;;;;;5114608;28;20185;-66
2021/08/08 01:25:04;;;;;;;2.92;1.45;;;22.40;64.90;;;;;;5114661;28;20187;-65
2021/08/08 01:27:29;;;;;;;1.40;1.25;;;22.40;64.90;;;;;;5113739;28;20220;-67
2021/08/08 01:29:55;;;;;;;2.40;1.75;;;22.40;64.90;;;;;;5096336;28;20177;-67
2021/08/08 01:32:21;;;;;;;1.23;1.13;;;22.40;64.90;;;;;;5114316;28;20173;-67
2021/08/08 01:34:47;;;;;;;2.92;1.30;;;22.40;64.90;;;;;;5113607;28;20170;-66
2021/08/08 01:37:20;;;;;;;1.92;1.48;;;22.40;65.00;;;;;;5113999;28;20173;-66
2021/08/08 01:39:53;;;;;;;1.83;1.40;;;22.40;65.00;;;;;;5114492;28;20184;-65
2021/08/08 01:42:18;;;;;;;1.95;1.63;;;22.30;64.90;;;;;;5095248;28;20169;-66
2021/08/08 01:44:51;;;;;;;2.53;1.55;;;22.30;64.90;;;;;;5096160;28;20171;-65
2021/08/08 01:47:19;;;;;;;3.30;1.75;;;22.30;64.90;;;;;;5095418;28;20215;-65
2021/08/08 01:49:45;;;;;;;2.33;1.58;;;22.30;64.90;;;;;;5096298;28;20200;-65
2021/08/08 01:52:11;;;;;;;1.80;1.70;;;22.30;65.00;;;;;;5096109;28;20169;-66
2021/08/08 01:54:37;;;;;;;1.50;1.40;;;22.30;64.90;;;;;;5095210;28;20173;-66
2021/08/08 01:57:03;;;;;;;2.20;1.67;;;22.30;64.90;;;;;;5114205;28;20173;-67
2021/08/08 01:59:28;;;;;;;1.70;1.58;;;22.30;64.90;;;;;;5113769;28;20181;-66
2021/08/08 02:02:10;;;;;;;2.75;1.63;;;22.30;64.90;;;;;;5113329;28;20196;-67
2021/08/08 02:04:36;;;;;;;2.50;1.70;;;22.30;65.80;;;;;;5113690;28;20288;-67
2021/08/08 02:07:02;;;;;;;3.15;1.70;;;22.30;64.90;;;;;;5113929;28;20209;-66
2021/08/08 02:09:27;;;;;;;2.15;1.75;;;22.30;65.00;;;;;;5094674;28;20225;-66
2021/08/08 02:11:53;;;;;;;2.13;1.67;;;22.30;64.90;;;;;;5113767;28;20177;-66
2021/08/08 02:14:18;;;;;;;2.47;1.50;;;22.30;65.00;;;;;;5113293;28;20491;-66
2021/08/08 02:16:44;;;;;;;2.45;2.03;;;22.30;65.00;;;;;;5112843;28;20189;-66
2021/08/08 02:19:09;;;;;;;3.17;2.00;;;22.30;65.00;;;;;;5113823;28;20173;-65
2021/08/08 02:21:35;;;;;;;3.15;1.80;;;22.30;65.00;;;;;;5113134;28;20315;-64
2021/08/08 02:24:00;;;;;;;2.40;1.88;;;22.30;65.00;;;;;;5112929;28;20184;-65
2021/08/08 02:26:26;;;;;;;1.95;1.55;;;22.30;65.00;;;;;;5113157;28;20201;-65
2021/08/08 02:28:54;;;;;;;3.15;2.22;;;22.30;65.00;;;;;;5113411;28;20173;-65
2021/08/08 02:31:19;;;;;;;2.33;1.83;;;22.30;65.00;;;;;;5112264;28;20590;-65
2021/08/08 02:33:45;;;;;;;2.00;1.80;;;22.20;65.00;;;;;;5113513;28;20180;-67
2021/08/08 02:36:11;;;;;;;3.28;2.00;;;22.20;65.00;;;;;;5113141;28;20188;-67
2021/08/08 02:38:36;;;;;;;2.47;1.90;;;22.20;65.00;;;;;;5112390;28;20173;-67
2021/08/08 02:41:02;;;;;;;2.58;1.80;;;22.30;65.10;;;;;;5113264;28;20641;-66
2021/08/08 02:43:27;;;;;;;2.40;2.20;;;22.20;65.00;;;;;;5112815;28;20203;-67
2021/08/08 02:45:53;;;;;;;2.97;2.03;;;22.20;65.10;;;;;;5112542;28;20203;-66
2021/08/08 02:48:19;;;;;;;2.17;1.98;;;22.20;65.00;;;;;;5112496;28;20185;-67
2021/08/08 02:50:44;;;;;;;3.53;2.20;;;22.20;65.00;;;;;;5111909;28;20565;-66
2021/08/08 02:53:10;;;;;;;2.53;2.22;;;22.20;65.00;;;;;;5113086;28;20319;-68
2021/08/08 02:55:35;;;;;;;2.42;1.90;;;22.20;65.00;;;;;;5112721;28;20173;-66
2021/08/08 02:58:01;;;;;;;2.47;2.00;;;22.20;65.00;;;;;;5112226;28;20606;-68
2021/08/08 03:00:26;;;;;;;5.25;2.33;;;22.20;65.00;;;;;;5112890;28;20173;-67
2021/08/08 03:02:52;;;;;;;3.22;2.35;;;22.20;65.10;;;;;;5112736;28;20226;-68
2021/08/08 03:05:17;;;;;;;3.20;1.80;;;22.20;65.10;;;;;;5111904;28;20189;-67
2021/08/08 03:07:43;;;;;;;4.38;2.40;;;22.20;65.10;;;;;;5112765;28;20303;-67
2021/08/08 03:10:09;;;;;;;3.78;2.20;;;22.20;65.10;;;;;;5112775;28;20260;-65
2021/08/08 03:12:34;;;;;;;2.90;2.42;;;22.20;65.10;;;;;;5111674;28;20180;-67
2021/08/08 03:15:00;;;;;;;2.63;2.42;;;22.20;65.20;;;;;;5112545;28;20173;-67
2021/08/08 03:17:25;;;;;;;3.20;2.85;;;22.20;65.10;;;;;;5112424;28;20169;-68
2021/08/08 03:19:51;;;;;;;2.40;2.00;;;22.20;65.10;;;;;;5111791;28;20177;-66
2021/08/08 03:22:16;;;;;;;4.88;2.85;;;22.20;65.70;;;;;;5112174;28;20237;-66
2021/08/08 03:24:42;;;;;;;2.70;2.28;;;22.20;65.10;;;;;;5112560;28;20202;-66
2021/08/08 03:27:08;;;;;;;3.38;2.60;;;22.20;65.10;;;;;;5111741;28;20611;-69
2021/08/08 03:29:33;;;;;;;5.32;2.83;;;22.20;65.10;;;;;;5112015;28;20177;-67
2021/08/08 03:31:59;;;;;;;5.10;2.60;;;22.20;65.10;;;;;;5112706;28;20196;-68
2021/08/08 03:34:24;;;;;;;3.75;2.50;;;22.10;65.10;;;;;;5111705;28;20203;-70
2021/08/08 03:36:50;;;;;;;3.97;2.38;;;22.10;65.10;;;;;;5112482;28;20184;-69
2021/08/08 03:39:17;;;;;;;3.78;2.55;;;22.10;65.10;;;;;;5112315;28;20169;-67
2021/08/08 03:41:43;;;;;;;3.08;2.30;;;22.10;65.10;;;;;;5111555;28;20252;-68
2021/08/08 03:44:08;;;;;;;4.20;2.53;;;22.20;65.10;;;;;;5112405;28;20256;-67
2021/08/08 03:46:34;;;;;;;3.92;2.47;;;22.10;65.10;;;;;;5111930;28;20212;-67
2021/08/08 03:48:59;;;;;;;3.47;2.47;;;22.10;65.10;;;;;;5111258;28;20609;-67
2021/08/08 03:51:25;;;;;;;4.35;2.70;;;22.10;65.10;;;;;;5111993;28;20260;-67
2021/08/08 03:53:50;;;;;;;4.20;2.60;;;22.10;65.20;;;;;;5111935;28;20177;-67
2021/08/08 03:56:16;;;;;;;5.72;2.80;;;22.10;65.20;;;;;;5111614;28;20173;-67
2021/08/08 03:58:41;;;;;;;4.22;2.53;;;22.10;65.10;;;;;;5112146;28;20253;-67
2021/08/08 04:01:07;;;;;;;4.85;2.78;;;22.10;65.10;;;;;;5113868;28;20169;-67
2021/08/08 04:03:34;;;;;;;4.82;3.00;;;22.10;65.10;;;;;;5115889;28;20583;-67
2021/08/08 04:05:59;;;;;;;3.70;2.60;;;22.10;65.10;;;;;;5116350;28;20216;-66
2021/08/08 04:08:25;;;;;;;3.95;2.55;;;22.10;65.20;;;;;;5115171;28;20177;-67
2021/08/08 04:10:50;;;;;;;4.40;3.00;;;22.10;65.10;;;;;;5116344;28;20162;-66
2021/08/08 04:13:16;;;;;;;6.03;2.50;;;22.10;65.10;;;;;;5115778;28;20628;-67
2021/08/08 04:15:41;;;;;;;5.43;2.85;;;22.10;65.10;;;;;;5115516;28;20252;-66
2021/08/08 04:18:07;;;;;;;3.28;2.55;;;22.10;65.20;;;;;;5116251;28;20173;-65
2021/08/08 04:20:32;;;;;;;2.67;2.42;;;22.10;65.10;;;;;;5115273;28;20217;-66
2021/08/08 04:22:58;;;;;;;4.03;2.40;;;22.10;65.10;;;;;;5115158;28;20177;-66
2021/08/08 04:25:23;;;;;;;5.47;2.55;;;22.00;65.00;;;;;;5115605;28;20269;-66
2021/08/08 04:27:49;;;;;;;4.00;3.10;;;22.10;65.10;;;;;;5115582;28;20228;-67
2021/08/08 04:30:14;;;;;;;5.60;2.90;;;22.10;65.10;;;;;;5115218;28;20192;-66
2021/08/08 04:32:40;;;;;;;6.82;3.03;;;22.10;65.10;;;;;;5115648;28;20185;-67
2021/08/08 04:35:06;;;;;;;5.30;3.03;;;22.00;65.00;;;;;;5115735;28;20255;-67
2021/08/08 04:37:32;;;;;;;2.95;2.40;;;22.00;65.00;;;;;;5114641;28;20176;-66
2021/08/08 04:39:57;;;;;;;4.88;2.72;;;22.00;65.00;;;;;;5115732;28;20179;-66
2021/08/08 04:42:23;;;;;;;3.97;2.60;;;22.00;65.00;;;;;;5115211;28;20511;-67
2021/08/08 04:44:48;;;;;;;4.75;2.53;;;22.00;65.00;;;;;;5115079;28;20169;-66
2021/08/08 04:47:14;;;;;;;5.43;2.88;;;22.00;65.00;;;;;;5115764;28;20296;-67
2021/08/08 04:49:39;;;;;;;4.57;2.80;;;22.00;65.00;;;;;;5115238;28;20573;-67
2021/08/08 04:52:05;;;;;;;4.68;2.53;;;22.00;65.00;;;;;;5115142;28;20188;-67
2021/08/08 04:54:30;;;;;;;3.50;2.03;;;22.00;65.00;;;;;;5115257;28;20176;-68
2021/08/08 04:56:56;;;;;;;7.35;3.30;;;22.00;65.00;;;;;;5115669;28;20169;-68
2021/08/08 04:59:21;;;;;;;3.97;2.70;;;22.00;64.90;;;;;;5114513;28;20181;-67
2021/08/08 05:01:50;;;;;;;2.97;2.50;;;22.00;65.00;;;;;;5115325;28;20678;-67
2021/08/08 05:04:15;;;;;;;4.07;2.97;;;22.00;65.00;;;;;;5114568;28;20275;-67
2021/08/08 05:06:41;;;;;;;4.15;2.70;;;22.00;64.90;;;;;;5115150;28;20296;-67
2021/08/08 05:09:07;;;;;;;4.20;2.53;;;22.00;64.90;;;;;;5115056;28;20631;-66
2021/08/08 05:11:33;;;;;;;3.05;2.40;;;22.00;64.90;;;;;;5113218;28;20198;-65
2021/08/08 05:13:59;;;;;;;6.00;2.55;;;22.00;64.90;;;;;;5114694;28;20486;-67
2021/08/08 05:16:25;;;;;;;4.05;3.08;;;22.00;64.90;;;;;;5114817;28;20177;-67
2021/08/08 05:18:50;;;;;;;5.50;3.05;;;22.00;64.90;;;;;;5114268;28;20192;-66
2021/08/08 05:21:16;;;;;;;6.40;2.85;;;22.00;64.80;;;;;;5114207;28;20232;-64
2021/08/08 05:23:41;;;;;;;4.38;2.72;;;22.00;64.80;;;;;;5114942;28;20256;-65
2021/08/08 05:26:07;;;;;;;4.07;2.80;;;22.00;64.70;;;;;;5113840;28;20682;-65
2021/08/08 05:28:32;;;;;;;5.60;2.90;;;22.00;64.70;;;;;;5114485;28;20177;-66
2021/08/08 05:30:58;;;;;;;3.70;2.60;;;22.00;64.70;;;;;;5114807;28;20165;-66
2021/08/08 05:33:23;;;;;;;4.32;2.72;;;22.10;64.70;;;;;;5113615;28;20203;-67
2021/08/08 05:35:51;;;;;;;5.97;3.53;;;22.10;64.60;;;;;;5114607;28;20643;-67
2021/08/08 05:38:16;;;;;;;5.30;3.33;;;22.10;64.50;;;;;;5114362;28;20252;-67
2021/08/08 05:40:42;;;;;;;3.70;2.72;;;22.10;64.50;;;;;;5113586;28;20287;-66
2021/08/08 05:43:07;;;;;;;6.88;3.28;;;22.00;64.50;;;;;;5114311;28;20518;-67
2021/08/08 05:45:33;;;;;;;4.40;2.83;;;22.00;64.50;;;;;;5114095;28;20165;-66
2021/08/08 05:47:58;;;;;;;5.72;3.00;;;22.00;64.50;;;;;;5113532;28;20185;-67
2021/08/08 05:50:24;;;;;;;6.07;2.55;;;22.00;64.60;;;;;;5114022;28;20194;-68
2021/08/08 05:52:50;;;;;;;3.67;2.60;;;22.00;64.70;;;;;;5114108;28;20623;-67
2021/08/08 05:55:16;;;;;;;3.72;2.85;;;22.00;64.60;;;;;;5112992;28;20596;-67
2021/08/08 05:57:42;;;;;;;4.40;2.60;;;22.00;64.60;;;;;;5114441;28;20169;-68
2021/08/08 06:00:07;;;;;;;6.22;2.88;;;22.00;64.50;;;;;;5113979;28;20346;-67
2021/08/08 06:02:33;;;;;;;6.78;3.78;;;22.00;64.50;;;;;;5112917;28;20577;-66
2021/08/08 06:04:59;;;;;;;5.22;2.97;;;22.10;64.50;;;;;;5113841;28;20673;-66
2021/08/08 06:07:24;;;;;;;4.85;2.75;;;22.10;64.40;;;;;;5113351;28;20236;-66
2021/08/08 06:09:50;;;;;;;4.53;3.20;;;22.10;64.40;;;;;;5112989;28;20255;-66
2021/08/08 06:12:15;;;;;;;6.95;3.47;;;22.00;64.30;;;;;;5113564;28;20233;-67
2021/08/08 06:14:41;;;;;;;5.75;2.72;;;22.00;64.40;;;;;;5113331;28;20244;-65
2021/08/08 06:17:06;;;;;;;5.38;3.05;;;22.00;64.40;;;;;;5113476;28;20523;-65
2021/08/08 06:19:32;;;;;;;4.97;3.20;;;22.00;64.40;;;;;;5113006;28;20243;-64
2021/08/08 06:21:58;;;;;;;6.72;2.78;;;22.00;64.40;;;;;;5112541;28;20224;-65
2021/08/08 06:24:24;;;;;;;7.15;2.92;;;22.00;65.30;;;;;;5113062;28;20191;-64
2021/08/08 06:26:49;;;;;;;4.88;2.88;;;22.10;64.50;;;;;;5113296;28;20212;-64
2021/08/08 06:29:16;;;;;;;5.93;3.05;;;22.10;64.40;;;;;;5112127;28;20216;-65
2021/08/08 06:31:41;;;;;;;8.88;3.40;;;22.10;64.20;;;;;;5113211;28;20168;-66
2021/08/08 06:34:07;;;;;;;5.70;2.95;;;22.10;64.20;;;;;;5112928;28;20632;-66
2021/08/08 06:36:32;;;;;;;5.57;2.83;;;22.10;64.10;;;;;;5112240;28;20204;-66
2021/08/08 06:39:00;;;;;;;3.75;2.50;;;22.10;64.10;;;;;;5113286;28;20260;-64
2021/08/08 06:41:25;;;;;;;4.88;3.00;;;22.10;64.00;;;;;;5112967;28;20583;-64
2021/08/08 06:43:51;;;;;;;5.32;2.65;;;22.10;64.00;;;;;;5112520;28;20291;-65
2021/08/08 06:46:16;;;;;;;4.75;2.83;;;22.10;64.10;;;;;;5112673;28;20708;-65
2021/08/08 06:48:43;;;;;;;4.20;2.58;;;22.10;64.20;;;;;;5112982;28;20169;-65
2021/08/08 06:51:08;;;;;;;6.15;3.30;;;22.10;64.20;;;;;;5112251;28;20177;-64
2021/08/08 06:53:34;;;;;;;7.00;3.15;;;22.10;64.30;;;;;;5112431;28;20219;-65
2021/08/08 06:55:59;;;;;;;6.30;3.38;;;22.10;64.20;;;;;;5113002;28;20234;-65
2021/08/08 06:58:25;;;;;;;5.45;2.65;;;22.10;64.10;;;;;;5111874;28;20173;-67
2021/08/08 07:00:50;;;;;;;6.25;3.45;;;22.10;64.10;;;;;;5112608;28;20173;-66
2021/08/08 07:03:16;;;;;;;9.38;3.33;;;22.10;64.10;;;;;;5112589;28;20188;-66
2021/08/08 07:05:41;;;;;;;6.47;3.10;;;22.10;64.10;;;;;;5111866;28;20600;-66
2021/08/08 07:08:07;;;;;;;7.30;3.20;;;22.10;64.10;;;;;;5112651;28;20185;-66
2021/08/08 07:10:33;;;;;;;7.35;2.80;;;22.00;64.00;;;;;;5112419;28;20238;-66
2021/08/08 07:12:58;;;;;;;6.72;3.38;;;22.00;64.00;;;;;;5111831;28;20260;-67
2021/08/08 07:15:24;;;;;;;5.40;3.03;;;22.10;64.00;;;;;;5112289;28;20169;-66
2021/08/08 07:17:49;;;;;;;5.28;2.92;;;22.10;64.00;;;;;;5112126;28;20185;-67
2021/08/08 07:20:15;;;;;;;6.03;3.03;;;22.10;64.00;;;;;;5112002;28;20270;-66
2021/08/08 07:22:41;;;;;;;7.90;3.20;;;22.10;63.90;;;;;;5112366;28;20177;-66
2021/08/08 07:25:07;;;;;;;4.85;2.85;;;22.10;63.80;;;;;;5111854;28;20184;-66
2021/08/08 07:27:32;;;;;;;6.07;3.05;;;22.10;63.70;;;;;;5111973;28;20522;-66
2021/08/08 07:29:58;;;;;;;5.25;3.35;;;22.10;63.60;;;;;;5112432;28;20728;-68
2021/08/08 07:32:23;;;;;;;5.65;3.17;;;22.10;63.70;;;;;;5111180;28;20195;-67
2021/08/08 07:34:49;;;;;;;5.70;2.95;;;22.10;63.70;;;;;;5111627;28;20245;-67
2021/08/08 07:37:14;;;;;;;6.13;3.00;;;22.20;63.70;;;;;;5112120;28;20222;-67
2021/08/08 07:39:43;;;;;;;5.85;3.25;;;22.20;63.50;;;;;;5111341;28;20325;-67
2021/08/08 07:42:08;;;;;;;8.10;3.30;;;22.20;63.40;;;;;;5112345;28;20176;-67
2021/08/08 07:44:34;;;;;;;5.38;3.35;;;22.20;63.50;;;;;;5111976;28;20267;-67
2021/08/08 07:46:59;;;;;;;5.63;3.00;;;22.20;64.40;;;;;;5111166;28;20240;-67
2021/08/08 07:49:25;;;;;;;7.78;2.90;;;22.30;63.50;;;;;;5111686;28;20171;-67
2021/08/08 07:51:51;;;;;;;7.78;3.67;;;22.30;63.40;;;;;;5112038;28;20203;-66
2021/08/08 07:54:17;;;;;;;5.97;2.85;;;22.30;63.40;;;;;;5111196;28;20173;-67
2021/08/08 07:56:43;;;;;;;6.10;3.30;;;22.30;63.40;;;;;;5112080;28;20267;-67
2021/08/08 07:59:08;;;;;;;5.75;3.53;;;22.30;63.40;;;;;;5111959;28;20213;-68
2021/08/08 08:01:34;;;;;;;11.70;3.60;;;22.30;63.50;;;;;;5111094;28;20180;-67
2021/08/08 08:03:59;;;;;;;7.20;3.08;;;22.30;63.50;;;;;;5112073;28;20214;-69
2021/08/08 08:06:25;;;;;;;6.82;3.28;;;22.30;63.60;;;;;;5111505;28;20231;-64
2021/08/08 08:08:50;;;;;;;9.10;3.58;;;22.30;63.60;;;;;;5111329;28;20883;-64
2021/08/08 08:11:17;;;;;;;7.40;3.40;;;22.30;63.40;;;;;;5111669;28;20256;-66
2021/08/08 08:13:45;;;;;;;8.02;3.17;;;22.30;63.50;;;;;;5111840;28;20181;-66
2021/08/08 08:16:11;;;;;;;5.78;3.15;;;22.30;63.50;;;;;;5111466;28;20603;-65
2021/08/08 08:18:36;;;;;;;9.75;3.47;;;22.30;63.50;;;;;;5111528;28;20177;-66
2021/08/08 08:21:02;;;;;;;6.82;3.45;;;22.30;63.60;;;;;;5111855;28;20216;-67
2021/08/08 08:23:27;;;;;;;6.25;3.10;;;22.30;64.30;;;;;;5111580;28;20169;-64
2021/08/08 08:25:53;;;;;;;10.23;3.17;;;22.30;63.40;;;;;;5111839;28;20193;-64
2021/08/08 08:28:18;;;;;;;5.10;2.60;;;22.30;63.20;;;;;;5111039;28;20815;-65
2021/08/08 08:30:44;;;;;;;8.50;3.88;;;22.40;63.20;;;;;;5111991;28;20169;-65
2021/08/08 08:33:10;;;;;;;7.05;3.00;;;22.40;63.00;;;;;;5111896;28;20611;-66
2021/08/08 08:35:35;;;;;;;7.80;3.35;;;22.40;62.90;;;;;;5110857;28;20264;-64
2021/08/08 08:38:01;;;;;;;8.63;3.38;;;22.50;62.80;;;;;;5112127;28;20169;-65
2021/08/08 08:40:26;;;;;;;5.88;3.00;;;22.60;62.80;;;;;;5111695;28;20628;-64
2021/08/08 08:42:54;;;;;;;6.68;3.00;;;22.60;62.80;;;;;;5111433;28;20161;-65
2021/08/08 08:45:19;;;;;;;10.38;3.53;;;22.60;62.70;;;;;;5090288;28;20682;-62
2021/08/08 08:47:46;;;;;;;7.47;3.90;;;22.60;62.80;;;;;;5114541;28;20682;-64
2021/08/08 08:50:12;;;;;;;6.65;3.10;;;22.70;62.70;;;;;;5114729;28;20169;-63
2021/08/08 08:52:37;;;;;;;4.57;2.95;;;22.70;62.60;;;;;;5115193;28;20181;-64
2021/08/08 08:55:03;;;;;;;7.45;3.60;;;22.70;62.70;;;;;;5115358;28;20694;-64
2021/08/08 08:57:29;;;;;;;6.85;3.20;;;22.70;62.70;;;;;;5114399;28;20173;-63
2021/08/08 08:59:55;;;;;;;5.57;3.38;;;22.70;62.80;;;;;;5115357;28;20180;-64
2021/08/08 09:02:20;;;;;;;5.20;2.72;;;22.70;62.80;;;;;;5114812;28;20169;-64
2021/08/08 09:04:46;;;;;;;6.10;3.25;;;22.70;62.70;;;;;;5114455;28;20218;-63
2021/08/08 09:07:11;;;;;;;5.70;3.00;;;22.80;62.60;;;;;;5114872;28;20205;-65
2021/08/08 09:09:37;;;;;;;6.45;2.95;;;22.80;62.60;;;;;;5115028;28;20223;-68
2021/08/08 09:12:03;;;;;;;5.82;3.13;;;22.70;62.50;;;;;;5114121;28;20177;-65
2021/08/08 09:14:31;;;;;;;6.32;3.25;;;22.80;62.60;;;;;;5114150;28;20219;-64
2021/08/08 09:16:57;;;;;;;8.95;3.58;;;22.80;62.30;;;;;;5114733;28;20205;-66
2021/08/08 09:19:27;;;;;;;8.75;3.33;;;22.80;62.20;;;;;;5113546;28;20628;-67
2021/08/08 09:21:52;;;;;;;6.65;3.28;;;22.80;63.10;;;;;;5114461;28;20301;-64
2021/08/08 09:24:44;;;;;;;6.20;3.17;;;22.80;62.40;;;;;;5114571;28;20580;-64
2021/08/08 09:27:11;;;;;;;10.25;3.58;;;22.80;62.40;;;;;;5111469;28;20229;-62
2021/08/08 09:29:39;;;;;;;8.50;3.63;;;22.80;62.50;;;;;;5114342;28;20219;-67
2021/08/08 09:32:05;;;;;;;5.68;3.05;;;22.80;62.40;;;;;;5113889;28;20208;-67
2021/08/08 09:34:32;;;;;;;10.00;3.10;;;22.80;62.40;;;;;;5113254;28;20203;-68
2021/08/08 09:37:04;;;;;;;12.55;3.85;;;22.80;63.30;;;;;;5114570;28;20583;-67
2021/08/08 09:39:41;;;;;;;5.38;3.38;;;22.80;62.40;;;;;;5113361;28;20187;-67
2021/08/08 09:42:16;;;;;;;8.32;3.55;;;22.80;62.40;;;;;;5114362;28;20177;-68
2021/08/08 09:44:55;;;;;;;8.20;3.35;;;22.80;62.40;;;;;;5114826;28;20169;-67
2021/08/08 09:47:21;;;;;;;6.85;3.50;;;22.80;62.30;;;;;;5113257;28;20208;-67
2021/08/08 09:49:54;;;;;;;8.45;3.67;;;22.80;62.40;;;;;;5114186;28;20688;-67
2021/08/08 09:52:21;;;;;;;7.32;3.97;;;22.80;62.50;;;;;;5113825;28;20200;-68
2021/08/08 09:54:46;;;;;;;8.88;3.20;;;22.70;62.50;;;;;;5113338;28;20177;-66
2021/08/08 09:57:15;;;;;;;9.55;3.60;;;22.80;62.50;;;;;;5114373;28;20230;-67
2021/08/08 09:59:46;;;;;;;4.93;2.85;;;22.80;62.20;;;;;;5112396;28;20620;-67
2021/08/08 10:02:13;;;;;;;6.03;3.38;;;22.70;62.20;;;;;;5114051;28;20177;-67
2021/08/08 10:04:38;;;;;;;7.95;2.97;;;22.70;62.30;;;;;;5095277;28;20250;-66
2021/08/08 10:07:04;;;;;;;7.25;3.50;;;22.70;62.10;;;;;;5112953;28;20284;-66
2021/08/08 10:09:29;;;;;;;5.22;3.05;;;22.70;62.10;;;;;;5095241;28;20547;-65
2021/08/08 10:11:55;;;;;;;14.30;4.00;;;22.80;62.10;;;;;;5095379;28;20172;-66
2021/08/08 10:14:20;;;;;;;4.88;3.13;;;22.80;61.90;;;;;;5094435;28;20514;-66
2021/08/08 10:16:47;;;;;;;5.15;2.90;;;23.00;61.50;;;;;;5114765;27;20307;-66
2021/08/08 10:19:12;;;;;;;9.18;3.75;;;23.00;61.30;;;;;;5120476;27;20177;-64
2021/08/08 10:21:42;;;;;;;6.65;3.58;;;22.90;61.50;;;;;;5114612;27;20224;-68
2021/08/08 10:24:08;;;;;;;10.85;3.40;;;22.90;61.70;;;;;;5115926;27;20168;-67
2021/08/08 10:26:36;;;;;;;5.45;2.90;;;22.90;61.40;;;;;;5119869;27;20220;-66
2021/08/08 10:29:02;;;;;;;6.00;2.72;;;22.90;61.60;;;;;;5112648;28;20191;-67
2021/08/08 10:31:31;;;;;;;7.60;2.97;;;22.90;61.60;;;;;;5095124;28;20544;-67
2021/08/08 10:33:58;;;;;;;5.57;3.28;;;22.80;61.70;;;;;;5116334;27;20202;-67
2021/08/08 10:36:24;;;;;;;3.22;2.30;;;22.80;61.80;;;;;;5132692;27;20207;-67
2021/08/08 10:39:04;;;;;;;6.53;3.20;;;22.90;61.70;;;;;;5134124;27;20184;-67
2021/08/08 10:41:30;;;;;;;7.25;2.83;;;22.90;61.60;;;;;;5133542;27;20706;-66
2021/08/08 10:44:14;;;;;;;7.57;2.72;;;22.90;61.70;;;;;;5133153;27;20168;-66
2021/08/08 10:46:47;;;;;;;5.03;2.78;;;23.00;61.40;;;;;;5132450;27;20257;-65
2021/08/08 10:49:13;;;;;;;4.85;3.17;;;23.00;61.30;;;;;;5133441;27;20171;-67
2021/08/08 10:51:38;;;;;;;5.38;3.15;;;23.00;61.20;;;;;;5123514;27;20173;-66
2021/08/08 10:54:05;;;;;;;4.72;2.63;;;23.00;61.20;;;;;;5113135;28;20166;-67
2021/08/08 10:56:44;;;;;;;3.20;2.50;;;23.00;61.40;;;;;;5112104;28;20173;-67
2021/08/08 10:59:14;;;;;;;4.65;2.72;;;22.90;61.40;;;;;;5113113;28;20179;-67
2021/08/08 11:01:40;;;;;;;4.63;2.95;;;22.90;61.40;;;;;;5112635;28;20221;-66
2021/08/08 11:04:07;;;;;;;5.80;3.20;;;22.90;61.30;;;;;;5094168;28;20237;-66
2021/08/08 11:06:33;;;;;;;4.35;2.97;;;22.90;61.30;;;;;;5112565;28;20193;-66
2021/08/08 11:08:59;;;;;;;6.45;2.75;;;22.90;61.20;;;;;;5112885;28;20173;-66
2021/08/08 11:11:29;;;;;;;6.57;2.80;;;22.90;61.10;;;;;;5111165;28;20173;-66
2021/08/08 11:14:10;;;;;;;4.38;2.92;;;22.90;61.10;;;;;;5112974;28;20173;-68
2021/08/08 11:16:35;;;;;;;4.65;2.17;;;22.90;61.10;;;;;;5112670;28;20210;-67
2021/08/08 11:19:01;;;;;;;3.85;2.60;;;22.90;61.00;;;;;;5111734;28;20196;-65
2021/08/08 11:21:27;;;;;;;4.00;2.92;;;23.00;60.90;;;;;;5111758;28;20278;-66
2021/08/08 11:23:56;;;;;;;6.05;2.75;;;23.00;61.00;;;;;;5112414;28;20169;-66
2021/08/08 11:26:22;;;;;;;6.53;2.40;;;23.00;61.00;;;;;;5125455;27;20305;-66
2021/08/08 11:28:58;;;;;;;5.22;2.70;;;23.00;61.00;;;;;;5132949;27;20701;-67
2021/08/08 11:31:26;;;;;;;5.45;3.00;;;23.10;60.80;;;;;;5131696;27;20531;-67
2021/08/08 11:33:58;;;;;;;6.20;2.60;;;23.10;60.80;;;;;;5132912;27;20204;-68
2021/08/08 11:36:29;;;;;;;9.77;2.97;;;23.10;60.70;;;;;;5132413;27;20255;-66
2021/08/08 11:38:56;;;;;;;6.68;3.15;;;23.10;60.70;;;;;;5132098;27;20188;-66
2021/08/08 11:41:22;;;;;;;6.10;2.88;;;23.20;60.70;;;;;;5132606;27;20263;-65
2021/08/08 11:43:48;;;;;;;3.92;2.80;;;23.20;60.60;;;;;;5133255;28;20188;-67
2021/08/08 11:46:13;;;;;;;4.55;2.72;;;23.20;60.50;;;;;;5113616;28;20335;-66
2021/08/08 11:48:39;;;;;;;4.50;2.42;;;23.20;60.50;;;;;;5097008;28;20180;-66
2021/08/08 11:51:05;;;;;;;5.80;2.83;;;23.10;60.50;;;;;;5131885;28;20195;-67
2021/08/08 11:53:34;;;;;;;5.03;2.97;;;23.10;60.60;;;;;;5131546;28;20283;-67
2021/08/08 11:56:22;;;;;;;5.05;3.08;;;23.20;60.50;;;;;;5132491;28;20694;-66
2021/08/08 11:58:51;;;;;;;4.82;3.15;;;23.20;60.40;;;;;;5132895;28;20243;-67
2021/08/08 12:01:20;;;;;;;6.38;2.33;;;23.20;60.30;;;;;;5131580;28;20634;-67
2021/08/08 12:03:46;;;;;;;5.60;2.25;;;23.20;60.40;;;;;;5132678;28;20180;-67
2021/08/08 12:06:12;;;;;;;4.00;2.60;;;23.20;60.30;;;;;;5132021;28;20204;-66
2021/08/08 12:08:37;;;;;;;6.43;2.85;;;23.20;60.20;;;;;;5097306;28;20177;-66
2021/08/08 12:11:03;;;;;;;4.20;2.60;;;23.30;60.10;;;;;;5132593;28;20180;-68
2021/08/08 12:13:29;;;;;;;3.25;2.40;;;23.30;60.10;;;;;;5131990;28;20168;-67
2021/08/08 12:15:54;;;;;;;5.60;2.50;;;23.30;60.00;;;;;;5132691;28;20172;-67
2021/08/08 12:18:29;;;;;;;4.15;2.67;;;23.30;60.00;;;;;;5114158;28;20175;-67
2021/08/08 12:20:55;;;;;;;4.13;2.40;;;23.30;59.90;;;;;;5132006;27;20357;-66
2021/08/08 12:23:24;;;;;;;5.00;2.30;;;23.30;60.00;;;;;;5117991;27;20196;-67
2021/08/08 12:25:57;;;;;;;6.18;2.78;;;23.30;60.10;;;;;;5126437;27;20173;-66
2021/08/08 12:28:25;;;;;;;5.63;2.45;;;23.20;61.00;;;;;;5114811;28;20623;-67
2021/08/08 12:30:50;;;;;;;5.22;2.40;;;23.20;60.20;;;;;;5115630;28;20486;-67
2021/08/08 12:33:16;;;;;;;3.80;2.60;;;23.20;60.40;;;;;;5115373;28;20169;-67
2021/08/08 12:35:43;;;;;;;4.30;2.65;;;23.20;60.40;;;;;;5115142;28;20169;-66
2021/08/08 12:38:12;;;;;;;3.47;2.10;;;23.10;60.30;;;;;;5115818;28;20562;-66
2021/08/08 12:40:51;;;;;;;3.22;2.45;;;23.10;60.40;;;;;;5115663;28;20177;-66
2021/08/08 12:43:24;;;;;;;3.67;2.25;;;23.10;60.60;;;;;;5114689;28;20177;-66